Terminal Aerodrome Forecast
Issued by NWS

Home | Current Version | Previous Version | Text Only | Print | Product List | Glossary On
Versions: 1 2 3 4 5 6 7 8 9 10 11 12 13 14 15 16 17 18 19 20 21 22 23 24 25 26 27 28
000
FTUS41 KPHI 250500
TAFPNE
TAF
KPNE 250539Z 2506/2606 27010KT P6SM BKN050
     FM251500 29010G18KT P6SM SCT050 BKN250
     FM252200 36006KT P6SM SCT040 OVC150
     FM260500 03010KT 6SM -SN OVC035=

USA.gov is the U.S. government's official web portal to all federal, state and local government web resources and services.